createdAt,value
2023-02-05T00:01:37.804Z,8.00
2023-02-05T00:06:01.902Z,10.00
2023-02-05T00:10:25.875Z,18.40
2023-02-05T00:15:29.826Z,5.70
2023-02-05T00:20:21.955Z,10.70
2023-02-05T00:25:06.580Z,5.60
2023-02-05T00:29:51.007Z,6.00
2023-02-05T00:34:15.380Z,4.20
2023-02-05T00:38:38.646Z,5.80
2023-02-05T00:43:21.448Z,2.10
2023-02-05T00:47:46.395Z,2.30
2023-02-05T00:52:12.617Z,2.90
2023-02-05T00:56:36.488Z,9.30
2023-02-05T01:01:08.589Z,3.20
2023-02-05T01:05:34.309Z,2.80
2023-02-05T01:10:32.633Z,1.80
2023-02-05T01:15:38.494Z,1.90
2023-02-05T01:20:02.710Z,4.70
2023-02-05T01:24:26.714Z,2.20
2023-02-05T01:29:01.500Z,1.60
2023-02-05T01:33:34.805Z,1.50
2023-02-05T01:38:01.262Z,1.60
2023-02-05T01:42:25.747Z,1.50
2023-02-05T01:47:01.837Z,1.30
2023-02-05T01:51:25.987Z,1.60
2023-02-05T01:55:49.799Z,1.20
2023-02-05T02:00:16.628Z,1.50
2023-02-05T02:04:40.716Z,11.60
2023-02-05T02:09:04.970Z,5.70
2023-02-05T02:13:28.730Z,1.90
2023-02-05T02:17:53.098Z,2.10
2023-02-05T02:22:32.283Z,2.40
2023-02-05T02:27:14.437Z,3.10
2023-02-05T02:31:44.762Z,3.90
2023-02-05T02:36:23.043Z,2.90
2023-02-05T02:41:08.183Z,0.90
2023-02-05T02:45:38.587Z,1.70
2023-02-05T02:50:08.816Z,1.40
2023-02-05T02:54:35.953Z,2.20
2023-02-05T02:58:58.129Z,1.30
2023-02-05T03:03:22.141Z,1.40
2023-02-05T03:07:49.673Z,1.30
2023-02-05T03:12:13.661Z,4.70
2023-02-05T03:16:37.654Z,1.80
2023-02-05T03:21:04.784Z,1.70
2023-02-05T03:29:32.291Z,3.20
2023-02-05T03:34:12.723Z,2.80
2023-02-05T03:39:12.425Z,3.60
2023-02-05T03:44:05.151Z,1.60
2023-02-05T03:48:51.994Z,1.50
2023-02-05T03:53:17.104Z,1.40
2023-02-05T03:57:56.251Z,1.20
2023-02-05T04:02:20.278Z,1.30
2023-02-05T04:06:45.305Z,1.40
2023-02-05T04:11:10.800Z,1.60
2023-02-05T04:15:35.943Z,1.60
2023-02-05T04:20:09.516Z,4.10
2023-02-05T04:24:34.652Z,7.60
2023-02-05T04:29:00.101Z,7.10
2023-02-05T04:33:43.967Z,9.20
2023-02-05T04:38:08.088Z,6.30
2023-02-05T04:42:32.067Z,2.10
2023-02-05T04:46:56.357Z,1.70
2023-02-05T04:51:19.157Z,1.30
2023-02-05T04:55:43.336Z,1.30
2023-02-05T04:59:57.303Z,5.50
2023-02-05T05:04:21.208Z,4.40
2023-02-05T05:08:44.496Z,3.00
2023-02-05T05:13:08.370Z,2.40
2023-02-05T05:17:32.324Z,2.00
2023-02-05T05:21:56.682Z,1.90
2023-02-05T05:26:23.536Z,1.20
2023-02-05T05:30:48.565Z,1.20
2023-02-05T05:35:12.208Z,2.10
2023-02-05T05:39:34.606Z,1.30
2023-02-05T05:44:18.902Z,1.80
2023-02-05T05:48:43.343Z,1.30
2023-02-05T05:53:07.653Z,7.90
2023-02-05T05:57:52.490Z,8.50
2023-02-05T06:02:16.532Z,3.80
2023-02-05T06:06:40.459Z,2.20
2023-02-05T06:11:05.911Z,5.90
2023-02-05T06:15:30.026Z,7.50
2023-02-05T06:19:53.959Z,5.30
2023-02-05T06:24:10.368Z,7.10
2023-02-05T06:28:34.700Z,4.40
2023-02-05T06:32:59.232Z,6.50
2023-02-05T06:37:26.790Z,5.40
2023-02-05T06:41:52.949Z,30.20
2023-02-05T06:46:17.001Z,26.90
2023-02-05T06:50:34.692Z,17.90
2023-02-05T06:54:58.658Z,10.20
2023-02-05T06:59:22.780Z,26.00
2023-02-05T07:03:46.737Z,31.20
2023-02-05T07:08:10.798Z,31.10
2023-02-05T07:12:33.467Z,47.40
2023-02-05T07:16:57.447Z,33.30
2023-02-05T07:21:21.361Z,31.80
2023-02-05T07:25:46.044Z,45.50
2023-02-05T07:30:09.539Z,57.20
2023-02-05T07:34:33.886Z,99.80
2023-02-05T07:38:57.878Z,22.10
2023-02-05T07:43:42.734Z,20.80
2023-02-05T07:48:10.905Z,101.30
2023-02-05T07:52:34.973Z,95.40
2023-02-05T07:56:58.907Z,98.80
2023-02-05T08:01:22.898Z,77.60
2023-02-05T08:05:47.091Z,89.70
2023-02-05T08:10:10.907Z,121.10
2023-02-05T08:14:34.910Z,55.80
2023-02-05T08:19:05.351Z,67.20
2023-02-05T08:23:30.525Z,63.60
2023-02-05T08:28:15.230Z,44.20
2023-02-05T08:32:55.457Z,9.20
2023-02-05T08:37:12.197Z,18.40
2023-02-05T09:49:49.311Z,1.60
2023-02-05T09:54:13.892Z,1.90
2023-02-05T09:58:41.131Z,2.20
2023-02-05T10:03:10.643Z,2.00
2023-02-05T10:07:58.870Z,1.50
2023-02-05T10:12:28.951Z,1.80
2023-02-05T10:17:14.338Z,1.30
2023-02-05T10:21:51.357Z,1.40
2023-02-05T10:26:50.775Z,1.30
2023-02-05T10:31:29.929Z,1.40
2023-02-05T10:36:03.195Z,1.50
2023-02-05T10:40:27.583Z,1.30
2023-02-05T10:44:54.201Z,1.20
2023-02-05T10:49:35.701Z,1.40
2023-02-05T10:54:00.294Z,1.70
2023-02-05T10:58:24.392Z,1.60
2023-02-05T11:02:48.939Z,1.60
2023-02-05T11:07:32.886Z,1.50
2023-02-05T11:12:03.028Z,1.50
2023-02-05T11:16:33.409Z,1.50
2023-02-05T11:20:57.365Z,1.60
2023-02-05T11:25:28.110Z,1.60
2023-02-05T11:29:53.073Z,1.80
2023-02-05T11:34:20.823Z,1.40
2023-02-05T11:38:50.306Z,1.90
2023-02-05T11:43:17.445Z,1.60
2023-02-05T11:47:41.406Z,1.10
2023-02-05T11:52:08.657Z,1.10
2023-02-05T11:56:32.853Z,1.50
2023-02-05T12:01:11.857Z,1.90
2023-02-05T12:05:36.394Z,1.90
2023-02-05T12:09:52.928Z,1.30
2023-02-05T12:14:35.417Z,1.70
2023-02-05T12:19:20.627Z,1.20
2023-02-05T12:23:42.947Z,1.50
2023-02-05T12:28:09.196Z,1.50
2023-02-05T12:32:57.688Z,1.80
2023-02-05T12:37:44.352Z,1.20
2023-02-05T12:42:24.930Z,1.10
2023-02-05T12:46:49.218Z,1.40
2023-02-05T12:51:13.403Z,1.30
2023-02-05T12:55:38.780Z,2.10
2023-02-05T13:00:06.284Z,1.30
2023-02-05T13:04:36.731Z,2.70
2023-02-05T13:09:21.973Z,6.50
2023-02-05T13:13:45.966Z,8.90
2023-02-05T13:18:13.076Z,6.60
2023-02-05T13:22:40.223Z,1.70
2023-02-05T13:27:19.261Z,2.70
2023-02-05T13:32:15.399Z,1.50
2023-02-05T13:37:06.759Z,2.10
2023-02-05T13:41:30.914Z,1.60
2023-02-05T13:45:53.166Z,1.60
2023-02-05T13:50:15.239Z,1.80
2023-02-05T13:55:03.642Z,3.00
2023-02-05T13:59:33.414Z,1.70
2023-02-05T14:04:00.126Z,1.30
2023-02-05T14:08:27.337Z,1.10
2023-02-05T14:12:51.923Z,6.40
2023-02-05T14:17:25.032Z,5.40
2023-02-05T14:21:47.609Z,10.10
2023-02-05T14:26:16.198Z,8.70
2023-02-05T14:30:40.458Z,23.90
2023-02-05T14:35:18.598Z,5.20
2023-02-05T14:40:00.541Z,6.90
2023-02-05T14:44:24.435Z,9.40
2023-02-05T14:48:48.731Z,8.70
2023-02-05T14:53:18.821Z,8.30
2023-02-05T14:57:48.423Z,10.10
2023-02-05T15:02:14.056Z,6.40
2023-02-05T15:06:44.264Z,7.50
2023-02-05T15:11:08.681Z,8.20
2023-02-05T15:15:38.876Z,18.10
2023-02-05T15:20:05.036Z,68.90
2023-02-05T15:24:37.867Z,15.00
2023-02-05T15:29:07.892Z,33.00
2023-02-05T15:33:46.989Z,7.20
2023-02-05T15:38:10.986Z,4.30
2023-02-05T15:42:35.457Z,4.60
2023-02-05T15:47:19.335Z,8.20
2023-02-05T15:52:23.717Z,3.40
2023-02-05T15:57:20.455Z,3.70
2023-02-05T16:01:44.695Z,3.00
2023-02-05T16:06:14.943Z,3.10
2023-02-05T16:10:41.791Z,3.10
2023-02-05T16:15:25.939Z,3.00
2023-02-05T16:19:59.096Z,19.00
2023-02-05T16:24:48.167Z,91.90
2023-02-05T16:29:25.077Z,5.60
2023-02-05T16:34:10.663Z,3.70
2023-02-05T16:38:35.881Z,3.80
2023-02-05T16:43:23.580Z,3.90
2023-02-05T16:47:56.861Z,65.80
2023-02-05T16:52:29.703Z,6.30
2023-02-05T16:57:11.878Z,4.20
2023-02-05T17:01:40.187Z,3.60
2023-02-05T17:06:04.865Z,3.30
2023-02-05T17:10:34.995Z,3.60
2023-02-05T17:15:11.722Z,6.40
2023-02-05T17:19:44.281Z,4.30
2023-02-05T17:24:08.536Z,3.50
2023-02-05T17:28:34.550Z,2.80
2023-02-05T17:33:02.678Z,2.40
2023-02-05T17:37:27.634Z,2.70
2023-02-05T17:42:26.576Z,2.90
2023-02-05T17:47:13.484Z,2.60
2023-02-05T17:51:39.184Z,3.40
2023-02-05T17:56:04.750Z,2.90
2023-02-05T18:00:29.913Z,2.80
2023-02-05T18:04:57.764Z,3.40
2023-02-05T18:09:22.778Z,2.20
2023-02-05T18:13:47.079Z,2.30
2023-02-05T18:18:11.036Z,2.50
2023-02-05T18:22:34.961Z,2.50
2023-02-05T18:26:59.315Z,2.40
2023-02-05T18:31:23.867Z,2.80
2023-02-05T18:35:48.135Z,2.70
2023-02-05T18:40:12.084Z,2.40
2023-02-05T18:44:36.060Z,3.10
2023-02-05T18:49:03.141Z,3.00
2023-02-05T18:53:27.915Z,3.30
2023-02-05T18:57:52.853Z,3.10
2023-02-05T19:02:16.788Z,34.40
2023-02-05T19:06:44.623Z,3.80
2023-02-05T19:11:08.945Z,2.60
2023-02-05T19:15:33.999Z,3.70
2023-02-05T19:19:58.916Z,9.60
2023-02-05T19:24:24.217Z,3.70
2023-02-05T19:28:49.043Z,3.00
2023-02-05T19:33:12.929Z,3.00
2023-02-05T19:37:37.171Z,3.20
2023-02-05T19:42:07.535Z,3.30
2023-02-05T19:46:47.800Z,3.50
2023-02-05T19:51:12.892Z,2.80
2023-02-05T19:55:56.847Z,2.90
2023-02-05T20:00:20.949Z,25.50
2023-02-05T20:05:24.930Z,35.20
2023-02-05T20:09:48.917Z,27.80
2023-02-05T20:14:12.964Z,54.60
2023-02-05T20:18:37.360Z,8.90
2023-02-05T20:23:01.602Z,5.20
2023-02-05T20:27:26.034Z,5.40
2023-02-05T20:31:56.160Z,4.10
2023-02-05T20:36:20.250Z,8.60
2023-02-05T20:40:44.592Z,4.70
2023-02-05T20:45:08.429Z,4.00
2023-02-05T20:49:32.491Z,8.40
2023-02-05T20:54:16.504Z,4.10
2023-02-05T20:58:34.039Z,105.90
2023-02-05T21:02:58.038Z,43.80
2023-02-05T21:07:22.002Z,8.60
2023-02-05T21:11:45.903Z,5.10
2023-02-05T21:16:10.165Z,4.50
2023-02-05T21:20:34.440Z,3.80
2023-02-05T21:24:58.899Z,14.70
2023-02-05T21:29:22.926Z,4.30
2023-02-05T21:33:46.745Z,40.40
2023-02-05T21:38:10.693Z,20.80
2023-02-05T21:42:34.588Z,13.70
2023-02-05T21:46:58.910Z,27.80
2023-02-05T21:51:22.717Z,59.90
2023-02-05T21:55:46.905Z,104.60
2023-02-05T22:00:30.973Z,26.40
2023-02-05T22:04:57.666Z,15.10
2023-02-05T22:09:21.557Z,4.60
2023-02-05T22:13:45.684Z,3.80
2023-02-05T22:18:02.443Z,3.80
2023-02-05T22:22:46.761Z,8.30
2023-02-05T22:27:27.633Z,4.10
2023-02-05T22:31:51.645Z,3.50
2023-02-05T22:36:15.516Z,4.00
2023-02-05T22:40:48.023Z,11.00
2023-02-05T22:45:11.690Z,4.70
2023-02-05T22:49:39.427Z,3.80
2023-02-05T22:54:03.373Z,4.60
2023-02-05T22:59:08.242Z,4.80
2023-02-05T23:03:52.319Z,4.30
2023-02-05T23:08:16.184Z,3.70
2023-02-05T23:12:40.775Z,4.00
2023-02-05T23:17:08.003Z,4.30
2023-02-05T23:21:32.009Z,3.40
2023-02-05T23:25:55.845Z,4.10
2023-02-05T23:30:19.863Z,3.90
2023-02-05T23:34:44.124Z,4.60
2023-02-05T23:39:08.294Z,4.40
2023-02-05T23:43:32.031Z,4.20
2023-02-05T23:47:55.972Z,10.00
2023-02-05T23:52:20.224Z,4.10
2023-02-05T23:56:44.694Z,5.40
